BVX355A EGLL-LIMC
Flight info
| Callsign | BVX355A |
|---|---|
| Flight time | 1h 23m |
| Altitude | 39000 |
| Route | MODMI M185 MID L612 BOGNA UL612 VEULE DCT TEPRI UN491 POGZI DCT GELTA DCT LUVAL DCT SHARA DCT DEVDI DCT BASGO/N0509F290 Z424 AKASU/N0438F190 Z424 RIXUV |
| Aircraft | A35K/H-SDE2E3GHIJ3J4J5LM1ORWXY/LB1D1 |
Departure
| Time | 2026-04-30 13:15 |
|---|---|
| Airport | London Heathrow Airport (EGLL) |
Arrival
| Time | 2026-04-30 14:39 |
|---|---|
| Airport | Milan Malpensa International Airport (LIMC) |
| Time | Latitude | Longitude | Altitude | Speed | Heading |
|---|---|---|---|---|---|
| 2026-04-30 12:44 | 51.47319 | -0.46587 | 92 ft | 0 kts | 90° |
| 2026-04-30 12:59 | 51.47319 | -0.46591 | 92 ft | 3 kts | 90° |
| 2026-04-30 13:00 | 51.47319 | -0.46633 | 93 ft | 4 kts | 90° |
| 2026-04-30 13:00 | 51.47319 | -0.46668 | 92 ft | 4 kts | 94° |
| 2026-04-30 13:00 | 51.47325 | -0.46707 | 91 ft | 4 kts | 130° |
| 2026-04-30 13:00 | 51.47344 | -0.46726 | 92 ft | 3 kts | 180° |
| 2026-04-30 13:01 | 51.47371 | -0.46726 | 91 ft | 4 kts | 180° |
| 2026-04-30 13:01 | 51.47380 | -0.46726 | 91 ft | 0 kts | 180° |
| 2026-04-30 13:04 | 51.47379 | -0.46726 | 91 ft | 1 kts | 179° |
| 2026-04-30 13:04 | 51.47370 | -0.46726 | 91 ft | 3 kts | 180° |
| 2026-04-30 13:05 | 51.47343 | -0.46726 | 92 ft | 5 kts | 180° |
| 2026-04-30 13:05 | 51.47297 | -0.46726 | 92 ft | 8 kts | 180° |
| 2026-04-30 13:05 | 51.47235 | -0.46725 | 92 ft | 10 kts | 180° |
| 2026-04-30 13:06 | 51.47077 | -0.46724 | 92 ft | 13 kts | 179° |
| 2026-04-30 13:06 | 51.46992 | -0.46662 | 97 ft | 14 kts | 146° |
| 2026-04-30 13:06 | 51.46928 | -0.46591 | 97 ft | 11 kts | 146° |
| 2026-04-30 13:06 | 51.46858 | -0.46515 | 96 ft | 12 kts | 145° |
| 2026-04-30 13:07 | 51.46799 | -0.46450 | 97 ft | 11 kts | 145° |
| 2026-04-30 13:07 | 51.46736 | -0.46420 | 95 ft | 9 kts | 179° |
| 2026-04-30 13:07 | 51.46677 | -0.46435 | 96 ft | 8 kts | 212° |
| 2026-04-30 13:07 | 51.46660 | -0.46525 | 96 ft | 10 kts | 268° |
| 2026-04-30 13:08 | 51.46658 | -0.46645 | 95 ft | 12 kts | 269° |
| 2026-04-30 13:08 | 51.46658 | -0.46789 | 96 ft | 13 kts | 270° |
| 2026-04-30 13:08 | 51.46657 | -0.46942 | 95 ft | 14 kts | 270° |
| 2026-04-30 13:08 | 51.46657 | -0.47106 | 95 ft | 16 kts | 270° |
| 2026-04-30 13:09 | 51.46657 | -0.47261 | 96 ft | 15 kts | 270° |
| 2026-04-30 13:09 | 51.46656 | -0.47426 | 95 ft | 14 kts | 270° |
| 2026-04-30 13:09 | 51.46655 | -0.47590 | 95 ft | 16 kts | 269° |
| 2026-04-30 13:09 | 51.46654 | -0.47764 | 92 ft | 15 kts | 269° |
| 2026-04-30 13:10 | 51.46654 | -0.47925 | 92 ft | 13 kts | 269° |
| 2026-04-30 13:10 | 51.46653 | -0.48051 | 94 ft | 10 kts | 270° |
| 2026-04-30 13:10 | 51.46653 | -0.48149 | 92 ft | 9 kts | 270° |
| 2026-04-30 13:10 | 51.46653 | -0.48232 | 92 ft | 1 kts | 269° |
| 2026-04-30 13:11 | 51.46653 | -0.48258 | 92 ft | 4 kts | 270° |
| 2026-04-30 13:11 | 51.46653 | -0.48312 | 92 ft | 7 kts | 270° |
| 2026-04-30 13:11 | 51.46653 | -0.48421 | 92 ft | 11 kts | 269° |
| 2026-04-30 13:11 | 51.46652 | -0.48550 | 92 ft | 10 kts | 269° |
| 2026-04-30 13:12 | 51.46652 | -0.48654 | 92 ft | 8 kts | 270° |
| 2026-04-30 13:12 | 51.46636 | -0.48731 | 97 ft | 6 kts | 231° |
| 2026-04-30 13:12 | 51.46592 | -0.48769 | 94 ft | 8 kts | 201° |
| 2026-04-30 13:13 | 51.46478 | -0.48719 | 97 ft | 10 kts | 113° |
| 2026-04-30 13:13 | 51.46477 | -0.48618 | 96 ft | 7 kts | 89° |
| 2026-04-30 13:13 | 51.46477 | -0.48615 | 96 ft | 0 kts | 89° |
| 2026-04-30 13:14 | 51.46477 | -0.48614 | 96 ft | 2 kts | 89° |
| 2026-04-30 13:15 | 51.46478 | -0.48375 | 95 ft | 52 kts | 90° |
| 2026-04-30 13:15 | 51.46481 | -0.45866 | 194 ft | 156 kts | 87° |
| 2026-04-30 13:15 | 51.46505 | -0.44154 | 905 ft | 158 kts | 91° |
| 2026-04-30 13:16 | 51.46396 | -0.42310 | 1266 ft | 181 kts | 106° |
| 2026-04-30 13:16 | 51.45858 | -0.40394 | 1776 ft | 194 kts | 120° |
| 2026-04-30 13:16 | 51.44899 | -0.38798 | 2376 ft | 207 kts | 147° |
| 2026-04-30 13:17 | 51.41945 | -0.37064 | 3438 ft | 240 kts | 160° |
| 2026-04-30 13:17 | 51.40315 | -0.36411 | 4270 ft | 242 kts | 169° |
| 2026-04-30 13:17 | 51.37007 | -0.37616 | 5935 ft | 254 kts | 202° |
| 2026-04-30 13:18 | 51.35385 | -0.38760 | 6674 ft | 255 kts | 193° |
| 2026-04-30 13:18 | 51.31876 | -0.39139 | 8140 ft | 258 kts | 173° |
| 2026-04-30 13:18 | 51.30069 | -0.38832 | 8936 ft | 262 kts | 169° |
| 2026-04-30 13:19 | 51.28256 | -0.38399 | 9764 ft | 264 kts | 168° |
| 2026-04-30 13:19 | 51.26427 | -0.37916 | 10513 ft | 270 kts | 168° |
| 2026-04-30 13:19 | 51.24498 | -0.37405 | 10888 ft | 289 kts | 168° |
| 2026-04-30 13:19 | 51.22444 | -0.36881 | 11218 ft | 308 kts | 169° |
| 2026-04-30 13:20 | 51.20257 | -0.36349 | 11567 ft | 326 kts | 169° |
| 2026-04-30 13:20 | 51.17993 | -0.35819 | 11890 ft | 342 kts | 169° |
| 2026-04-30 13:20 | 51.15575 | -0.35270 | 12247 ft | 356 kts | 170° |
| 2026-04-30 13:20 | 51.13088 | -0.34716 | 12765 ft | 364 kts | 170° |
| 2026-04-30 13:21 | 51.10562 | -0.34158 | 13386 ft | 369 kts | 170° |
| 2026-04-30 13:21 | 51.07999 | -0.33592 | 14012 ft | 373 kts | 170° |
| 2026-04-30 13:21 | 51.05412 | -0.33015 | 14560 ft | 377 kts | 170° |
| 2026-04-30 13:22 | 51.00199 | -0.31851 | 15788 ft | 382 kts | 170° |
| 2026-04-30 13:22 | 50.97556 | -0.31259 | 16414 ft | 385 kts | 170° |
| 2026-04-30 13:22 | 50.92196 | -0.30056 | 17707 ft | 391 kts | 171° |
| 2026-04-30 13:23 | 50.89486 | -0.29449 | 18329 ft | 394 kts | 171° |
| 2026-04-30 13:23 | 50.84017 | -0.28229 | 19489 ft | 398 kts | 170° |
| 2026-04-30 13:24 | 50.78491 | -0.26996 | 20619 ft | 404 kts | 170° |
| 2026-04-30 13:24 | 50.72921 | -0.25661 | 21809 ft | 409 kts | 166° |
| 2026-04-30 13:25 | 50.67637 | -0.22420 | 23013 ft | 411 kts | 149° |
| 2026-04-30 13:25 | 50.62766 | -0.17629 | 24165 ft | 414 kts | 145° |
| 2026-04-30 13:26 | 50.55546 | -0.09882 | 25560 ft | 424 kts | 145° |
| 2026-04-30 13:26 | 50.50616 | -0.04680 | 26494 ft | 430 kts | 146° |
| 2026-04-30 13:27 | 50.45600 | 0.00541 | 27368 ft | 436 kts | 146° |
| 2026-04-30 13:28 | 50.37922 | 0.08493 | 28638 ft | 446 kts | 146° |
| 2026-04-30 13:28 | 50.32700 | 0.13878 | 29458 ft | 451 kts | 146° |
| 2026-04-30 13:28 | 50.30071 | 0.16601 | 29829 ft | 454 kts | 144° |
| 2026-04-30 13:29 | 50.25371 | 0.23167 | 30705 ft | 454 kts | 130° |
| 2026-04-30 13:29 | 50.21738 | 0.31134 | 31546 ft | 453 kts | 123° |
| 2026-04-30 13:30 | 50.16651 | 0.43568 | 32640 ft | 454 kts | 124° |
| 2026-04-30 13:31 | 50.13159 | 0.51763 | 33440 ft | 452 kts | 124° |
| 2026-04-30 13:31 | 50.07874 | 0.63901 | 34431 ft | 450 kts | 125° |
| 2026-04-30 13:32 | 50.04335 | 0.71983 | 34894 ft | 452 kts | 125° |
| 2026-04-30 13:32 | 50.00806 | 0.80032 | 35341 ft | 453 kts | 125° |
| 2026-04-30 13:33 | 49.97228 | 0.88185 | 35774 ft | 454 kts | 125° |
| 2026-04-30 13:33 | 49.93671 | 0.96245 | 36083 ft | 457 kts | 125° |
| 2026-04-30 13:34 | 49.91870 | 1.00317 | 36292 ft | 457 kts | 125° |
| 2026-04-30 13:34 | 49.86457 | 1.12526 | 36935 ft | 458 kts | 125° |
| 2026-04-30 13:35 | 49.84650 | 1.16589 | 37117 ft | 458 kts | 125° |
| 2026-04-30 13:35 | 49.81021 | 1.24732 | 37530 ft | 458 kts | 125° |
| 2026-04-30 13:36 | 49.77404 | 1.32819 | 37999 ft | 456 kts | 125° |
| 2026-04-30 13:36 | 49.71963 | 1.44945 | 38154 ft | 461 kts | 125° |
| 2026-04-30 13:37 | 49.66483 | 1.57097 | 38147 ft | 458 kts | 125° |
| 2026-04-30 13:38 | 49.60991 | 1.69226 | 38155 ft | 461 kts | 125° |
| 2026-04-30 13:39 | 49.53678 | 1.85288 | 38157 ft | 458 kts | 124° |
| 2026-04-30 13:40 | 49.48157 | 1.97353 | 38155 ft | 460 kts | 125° |
| 2026-04-30 13:40 | 49.44465 | 2.05388 | 38156 ft | 457 kts | 125° |
| 2026-04-30 13:41 | 49.40778 | 2.13387 | 38155 ft | 460 kts | 125° |
| 2026-04-30 13:41 | 49.37089 | 2.21367 | 38158 ft | 460 kts | 125° |
| 2026-04-30 13:42 | 49.33387 | 2.29350 | 38158 ft | 458 kts | 125° |
| 2026-04-30 13:42 | 49.27832 | 2.41292 | 38158 ft | 461 kts | 125° |
| 2026-04-30 13:43 | 49.24103 | 2.49274 | 38159 ft | 460 kts | 125° |
| 2026-04-30 13:43 | 49.20383 | 2.57216 | 38158 ft | 459 kts | 125° |
| 2026-04-30 13:44 | 49.16651 | 2.65160 | 38162 ft | 461 kts | 125° |
| 2026-04-30 13:44 | 49.12907 | 2.73104 | 38155 ft | 460 kts | 124° |
| 2026-04-30 13:45 | 49.07308 | 2.84943 | 38154 ft | 460 kts | 125° |
| 2026-04-30 13:46 | 49.03540 | 2.92878 | 38134 ft | 461 kts | 125° |
| 2026-04-30 13:46 | 48.99797 | 3.00739 | 38162 ft | 460 kts | 125° |
| 2026-04-30 13:47 | 48.96028 | 3.08631 | 38165 ft | 461 kts | 125° |
| 2026-04-30 13:47 | 48.92237 | 3.16549 | 38159 ft | 462 kts | 125° |
| 2026-04-30 13:48 | 48.88462 | 3.24410 | 38145 ft | 459 kts | 124° |
| 2026-04-30 13:48 | 48.84715 | 3.32187 | 38146 ft | 459 kts | 125° |
| 2026-04-30 13:49 | 48.80931 | 3.40027 | 38146 ft | 461 kts | 125° |
| 2026-04-30 13:49 | 48.77131 | 3.47862 | 38164 ft | 459 kts | 124° |
| 2026-04-30 13:50 | 48.73344 | 3.55648 | 38164 ft | 460 kts | 125° |
| 2026-04-30 13:50 | 48.67618 | 3.67390 | 38159 ft | 461 kts | 125° |
| 2026-04-30 13:51 | 48.64452 | 3.73857 | 38144 ft | 460 kts | 125° |
| 2026-04-30 13:51 | 48.60022 | 3.82884 | 38169 ft | 461 kts | 126° |
| 2026-04-30 13:52 | 48.56184 | 3.90679 | 38170 ft | 462 kts | 125° |
| 2026-04-30 13:52 | 48.52995 | 3.97164 | 38146 ft | 460 kts | 124° |
| 2026-04-30 13:53 | 48.49983 | 4.05647 | 38167 ft | 459 kts | 109° |
| 2026-04-30 13:53 | 48.48110 | 4.14861 | 38144 ft | 459 kts | 105° |
| 2026-04-30 13:54 | 48.46452 | 4.24092 | 38163 ft | 460 kts | 104° |
| 2026-04-30 13:54 | 48.44788 | 4.33386 | 38161 ft | 459 kts | 104° |
| 2026-04-30 13:55 | 48.43090 | 4.42680 | 38148 ft | 459 kts | 104° |
| 2026-04-30 13:55 | 48.41377 | 4.51930 | 38142 ft | 459 kts | 104° |
| 2026-04-30 13:56 | 48.39652 | 4.61188 | 38161 ft | 458 kts | 104° |
| 2026-04-30 13:56 | 48.37932 | 4.70381 | 38159 ft | 460 kts | 105° |
| 2026-04-30 13:57 | 48.36191 | 4.79637 | 38141 ft | 460 kts | 105° |
| 2026-04-30 13:57 | 48.34436 | 4.88923 | 38164 ft | 461 kts | 105° |
| 2026-04-30 13:58 | 48.31790 | 5.02836 | 38156 ft | 461 kts | 105° |
| 2026-04-30 13:59 | 48.30029 | 5.12043 | 38156 ft | 463 kts | 105° |
| 2026-04-30 13:59 | 48.28231 | 5.21339 | 38187 ft | 463 kts | 105° |
| 2026-04-30 14:00 | 48.26361 | 5.30607 | 38158 ft | 465 kts | 105° |
| 2026-04-30 14:00 | 48.23533 | 5.44501 | 38163 ft | 464 kts | 106° |
| 2026-04-30 14:01 | 48.21662 | 5.53699 | 38166 ft | 464 kts | 106° |
| 2026-04-30 14:01 | 48.19774 | 5.62955 | 38177 ft | 463 kts | 106° |
| 2026-04-30 14:02 | 48.17884 | 5.72173 | 38188 ft | 464 kts | 106° |
| 2026-04-30 14:02 | 48.15986 | 5.81389 | 38210 ft | 462 kts | 106° |
| 2026-04-30 14:03 | 48.14079 | 5.90609 | 38194 ft | 463 kts | 106° |
| 2026-04-30 14:03 | 48.12171 | 5.99791 | 38198 ft | 462 kts | 106° |
| 2026-04-30 14:04 | 48.10304 | 6.08731 | 38196 ft | 463 kts | 107° |
| 2026-04-30 14:04 | 48.08374 | 6.17934 | 38197 ft | 464 kts | 107° |
| 2026-04-30 14:05 | 48.06435 | 6.27137 | 38191 ft | 463 kts | 107° |
| 2026-04-30 14:05 | 48.04501 | 6.36272 | 38188 ft | 464 kts | 106° |
| 2026-04-30 14:06 | 48.01552 | 6.50133 | 38190 ft | 469 kts | 106° |
| 2026-04-30 14:07 | 47.98566 | 6.64067 | 38195 ft | 469 kts | 107° |
| 2026-04-30 14:08 | 47.93968 | 6.76841 | 38190 ft | 472 kts | 131° |
| 2026-04-30 14:08 | 47.86317 | 6.86175 | 38197 ft | 476 kts | 143° |
| 2026-04-30 14:09 | 47.80855 | 6.91652 | 38193 ft | 476 kts | 143° |
| 2026-04-30 14:10 | 47.72635 | 7.00058 | 38044 ft | 479 kts | 142° |
| 2026-04-30 14:10 | 47.69902 | 7.02906 | 37900 ft | 480 kts | 143° |
| 2026-04-30 14:10 | 47.67175 | 7.05752 | 37767 ft | 480 kts | 143° |
| 2026-04-30 14:10 | 47.64442 | 7.08606 | 37582 ft | 480 kts | 142° |
| 2026-04-30 14:11 | 47.61714 | 7.11451 | 37389 ft | 479 kts | 142° |
| 2026-04-30 14:11 | 47.58987 | 7.14291 | 37265 ft | 479 kts | 142° |
| 2026-04-30 14:11 | 47.56245 | 7.17140 | 37194 ft | 479 kts | 142° |
| 2026-04-30 14:12 | 47.50792 | 7.22797 | 37190 ft | 483 kts | 143° |
| 2026-04-30 14:12 | 47.45287 | 7.28497 | 37190 ft | 483 kts | 143° |
| 2026-04-30 14:13 | 47.39781 | 7.34184 | 37184 ft | 482 kts | 143° |
| 2026-04-30 14:13 | 47.34267 | 7.39863 | 37185 ft | 482 kts | 143° |
| 2026-04-30 14:14 | 47.28760 | 7.45522 | 37181 ft | 486 kts | 143° |
| 2026-04-30 14:14 | 47.23203 | 7.51218 | 37183 ft | 487 kts | 143° |
| 2026-04-30 14:15 | 47.17640 | 7.56903 | 37182 ft | 487 kts | 143° |
| 2026-04-30 14:15 | 47.12070 | 7.62578 | 37167 ft | 486 kts | 143° |
| 2026-04-30 14:16 | 47.06530 | 7.68210 | 36670 ft | 479 kts | 143° |
| 2026-04-30 14:16 | 47.03792 | 7.70987 | 36069 ft | 478 kts | 143° |
| 2026-04-30 14:16 | 47.01095 | 7.73721 | 35477 ft | 476 kts | 143° |
| 2026-04-30 14:16 | 46.98341 | 7.76510 | 34818 ft | 476 kts | 143° |
| 2026-04-30 14:17 | 46.95604 | 7.79279 | 34139 ft | 477 kts | 142° |
| 2026-04-30 14:17 | 46.92905 | 7.82005 | 33398 ft | 478 kts | 142° |
| 2026-04-30 14:17 | 46.90175 | 7.84759 | 32694 ft | 477 kts | 142° |
| 2026-04-30 14:17 | 46.87443 | 7.87511 | 31979 ft | 476 kts | 142° |
| 2026-04-30 14:18 | 46.84712 | 7.90258 | 31262 ft | 476 kts | 142° |
| 2026-04-30 14:18 | 46.81976 | 7.93006 | 30542 ft | 476 kts | 142° |
| 2026-04-30 14:18 | 46.76481 | 7.98519 | 29937 ft | 486 kts | 142° |
| 2026-04-30 14:19 | 46.70875 | 8.04131 | 29349 ft | 489 kts | 142° |
| 2026-04-30 14:19 | 46.68111 | 8.06887 | 28724 ft | 487 kts | 143° |
| 2026-04-30 14:19 | 46.65329 | 8.09655 | 28076 ft | 482 kts | 143° |
| 2026-04-30 14:20 | 46.62581 | 8.12385 | 27547 ft | 474 kts | 142° |
| 2026-04-30 14:20 | 46.59865 | 8.15082 | 26999 ft | 468 kts | 142° |
| 2026-04-30 14:20 | 46.54541 | 8.20372 | 25909 ft | 457 kts | 142° |
| 2026-04-30 14:21 | 46.51920 | 8.22971 | 25371 ft | 453 kts | 142° |
| 2026-04-30 14:21 | 46.49333 | 8.25538 | 24884 ft | 448 kts | 142° |
| 2026-04-30 14:21 | 46.44234 | 8.30586 | 23878 ft | 440 kts | 143° |
| 2026-04-30 14:22 | 46.41704 | 8.33074 | 23291 ft | 436 kts | 143° |
| 2026-04-30 14:22 | 46.36771 | 8.37924 | 22296 ft | 430 kts | 143° |
| 2026-04-30 14:22 | 46.34253 | 8.40243 | 22058 ft | 427 kts | 148° |
| 2026-04-30 14:23 | 46.28938 | 8.44173 | 20440 ft | 434 kts | 152° |
| 2026-04-30 14:23 | 46.23470 | 8.47732 | 19396 ft | 427 kts | 154° |
| 2026-04-30 14:24 | 46.18077 | 8.51193 | 18451 ft | 425 kts | 154° |
| 2026-04-30 14:24 | 46.15357 | 8.52958 | 18277 ft | 433 kts | 154° |
| 2026-04-30 14:25 | 46.09978 | 8.56463 | 18269 ft | 407 kts | 153° |
| 2026-04-30 14:25 | 46.05074 | 8.59654 | 18141 ft | 373 kts | 153° |
| 2026-04-30 14:26 | 46.00496 | 8.62635 | 17087 ft | 358 kts | 153° |
| 2026-04-30 14:26 | 45.98203 | 8.64135 | 16167 ft | 365 kts | 154° |
| 2026-04-30 14:26 | 45.93572 | 8.67156 | 15229 ft | 365 kts | 154° |
| 2026-04-30 14:27 | 45.91265 | 8.68657 | 14967 ft | 364 kts | 154° |
| 2026-04-30 14:27 | 45.88956 | 8.70161 | 14619 ft | 362 kts | 154° |
| 2026-04-30 14:27 | 45.86666 | 8.71646 | 14223 ft | 360 kts | 154° |
| 2026-04-30 14:28 | 45.82086 | 8.74604 | 13283 ft | 359 kts | 154° |
| 2026-04-30 14:28 | 45.79845 | 8.76050 | 12757 ft | 357 kts | 154° |
| 2026-04-30 14:28 | 45.77588 | 8.77478 | 12340 ft | 351 kts | 157° |
| 2026-04-30 14:28 | 45.75313 | 8.78696 | 11896 ft | 347 kts | 159° |
| 2026-04-30 14:29 | 45.70741 | 8.80993 | 10738 ft | 348 kts | 160° |
| 2026-04-30 14:29 | 45.66963 | 8.82820 | 10090 ft | 337 kts | 161° |
| 2026-04-30 14:30 | 45.60049 | 8.86129 | 8740 ft | 294 kts | 161° |
| 2026-04-30 14:31 | 45.56259 | 8.87979 | 7448 ft | 285 kts | 160° |
| 2026-04-30 14:31 | 45.52566 | 8.89789 | 6291 ft | 273 kts | 162° |
| 2026-04-30 14:31 | 45.50763 | 8.90331 | 5976 ft | 257 kts | 172° |
| 2026-04-30 14:32 | 45.47293 | 8.90878 | 5059 ft | 242 kts | 173° |
| 2026-04-30 14:32 | 45.45642 | 8.91090 | 4632 ft | 235 kts | 173° |
| 2026-04-30 14:32 | 45.44042 | 8.91286 | 4105 ft | 233 kts | 173° |
| 2026-04-30 14:33 | 45.42448 | 8.91467 | 3705 ft | 224 kts | 175° |
| 2026-04-30 14:33 | 45.39892 | 8.89650 | 3257 ft | 208 kts | 241° |
| 2026-04-30 14:33 | 45.39610 | 8.87710 | 3036 ft | 197 kts | 279° |
| 2026-04-30 14:34 | 45.40180 | 8.86005 | 3013 ft | 192 kts | 314° |
| 2026-04-30 14:34 | 45.41133 | 8.84680 | 2992 ft | 191 kts | 322° |
| 2026-04-30 14:34 | 45.42147 | 8.83456 | 2991 ft | 191 kts | 322° |
| 2026-04-30 14:34 | 45.43174 | 8.82258 | 2992 ft | 191 kts | 323° |
| 2026-04-30 14:35 | 45.44899 | 8.80292 | 2989 ft | 191 kts | 323° |
| 2026-04-30 14:35 | 45.46293 | 8.78751 | 2992 ft | 191 kts | 323° |
| 2026-04-30 14:35 | 45.47423 | 8.77777 | 2997 ft | 190 kts | 340° |
| 2026-04-30 14:36 | 45.48691 | 8.77311 | 2982 ft | 184 kts | 351° |
| 2026-04-30 14:36 | 45.49885 | 8.76988 | 2998 ft | 169 kts | 350° |
| 2026-04-30 14:36 | 45.51052 | 8.76658 | 2852 ft | 172 kts | 350° |
| 2026-04-30 14:36 | 45.52223 | 8.76329 | 2612 ft | 171 kts | 351° |
| 2026-04-30 14:37 | 45.53391 | 8.76006 | 2398 ft | 169 kts | 351° |
| 2026-04-30 14:37 | 45.54530 | 8.75692 | 2161 ft | 164 kts | 350° |
| 2026-04-30 14:37 | 45.55627 | 8.75390 | 1929 ft | 157 kts | 350° |
| 2026-04-30 14:37 | 45.56692 | 8.75096 | 1735 ft | 156 kts | 350° |
| 2026-04-30 14:38 | 45.57751 | 8.74804 | 1519 ft | 157 kts | 350° |
| 2026-04-30 14:38 | 45.58820 | 8.74508 | 1304 ft | 157 kts | 350° |
| 2026-04-30 14:38 | 45.59893 | 8.74211 | 1079 ft | 156 kts | 350° |
| 2026-04-30 14:38 | 45.60956 | 8.73918 | 893 ft | 155 kts | 349° |
| 2026-04-30 14:39 | 45.62025 | 8.73626 | 736 ft | 156 kts | 349° |
| 2026-04-30 14:39 | 45.62974 | 8.73366 | 721 ft | 104 kts | 349° |
| 2026-04-30 14:39 | 45.63416 | 8.73243 | 724 ft | 33 kts | 349° |
| 2026-04-30 14:40 | 45.63664 | 8.73126 | 727 ft | 19 kts | 326° |
| 2026-04-30 14:40 | 45.63764 | 8.73010 | 727 ft | 16 kts | 316° |
| 2026-04-30 14:40 | 45.63828 | 8.72890 | 727 ft | 14 kts | 304° |
| 2026-04-30 14:40 | 45.63878 | 8.72787 | 726 ft | 10 kts | 304° |
| 2026-04-30 14:41 | 45.63912 | 8.72715 | 726 ft | 7 kts | 304° |
| 2026-04-30 14:41 | 45.63940 | 8.72657 | 726 ft | 6 kts | 304° |
| 2026-04-30 14:41 | 45.63951 | 8.72621 | 726 ft | 0 kts | 287° |
| 2026-04-30 14:41 | 45.63952 | 8.72616 | 726 ft | 2 kts | 285° |
| 2026-04-30 14:42 | 45.63955 | 8.72587 | 725 ft | 6 kts | 275° |
| 2026-04-30 14:42 | 45.63951 | 8.72516 | 725 ft | 8 kts | 264° |
| 2026-04-30 14:42 | 45.63937 | 8.72386 | 725 ft | 11 kts | 258° |
| 2026-04-30 14:42 | 45.63926 | 8.72305 | 723 ft | 13 kts | 258° |
| 2026-04-30 14:43 | 45.63918 | 8.72164 | 721 ft | 16 kts | 267° |
| 2026-04-30 14:43 | 45.63912 | 8.72021 | 723 ft | 13 kts | 263° |
| 2026-04-30 14:43 | 45.63900 | 8.71907 | 724 ft | 12 kts | 253° |
| 2026-04-30 14:43 | 45.63852 | 8.71850 | 727 ft | 8 kts | 197° |
| 2026-04-30 14:44 | 45.63788 | 8.71832 | 725 ft | 11 kts | 179° |
| 2026-04-30 14:44 | 45.63708 | 8.71852 | 726 ft | 13 kts | 170° |
| 2026-04-30 14:44 | 45.63614 | 8.71877 | 724 ft | 15 kts | 169° |
| 2026-04-30 14:44 | 45.63507 | 8.71907 | 723 ft | 16 kts | 168° |
| 2026-04-30 14:45 | 45.63399 | 8.71938 | 724 ft | 16 kts | 169° |
| 2026-04-30 14:45 | 45.63290 | 8.71967 | 725 ft | 15 kts | 170° |
| 2026-04-30 14:45 | 45.63185 | 8.71994 | 726 ft | 16 kts | 169° |
| 2026-04-30 14:45 | 45.63070 | 8.72027 | 726 ft | 18 kts | 169° |
| 2026-04-30 14:46 | 45.62944 | 8.72063 | 725 ft | 19 kts | 168° |
| 2026-04-30 14:46 | 45.62817 | 8.72100 | 724 ft | 18 kts | 168° |
| 2026-04-30 14:46 | 45.62690 | 8.72136 | 723 ft | 17 kts | 169° |
| 2026-04-30 14:46 | 45.62573 | 8.72167 | 725 ft | 17 kts | 169° |
| 2026-04-30 14:47 | 45.62469 | 8.72195 | 725 ft | 12 kts | 169° |
| 2026-04-30 14:47 | 45.62378 | 8.72220 | 725 ft | 14 kts | 169° |
| 2026-04-30 14:47 | 45.62275 | 8.72248 | 723 ft | 14 kts | 169° |
| 2026-04-30 14:47 | 45.62175 | 8.72276 | 724 ft | 15 kts | 169° |
| 2026-04-30 14:48 | 45.62065 | 8.72306 | 724 ft | 17 kts | 169° |
| 2026-04-30 14:48 | 45.61960 | 8.72334 | 726 ft | 13 kts | 169° |
| 2026-04-30 14:48 | 45.61889 | 8.72343 | 726 ft | 8 kts | 196° |
| 2026-04-30 14:48 | 45.61860 | 8.72279 | 726 ft | 9 kts | 257° |
| 2026-04-30 14:49 | 45.61847 | 8.72186 | 724 ft | 11 kts | 259° |
| 2026-04-30 14:49 | 45.61821 | 8.72090 | 727 ft | 10 kts | 220° |
| 2026-04-30 14:49 | 45.61776 | 8.72044 | 725 ft | 7 kts | 234° |
| 2026-04-30 14:49 | 45.61763 | 8.71989 | 724 ft | 5 kts | 256° |
| 2026-04-30 14:50 | 45.61754 | 8.71927 | 725 ft | 0 kts | 257° |
| 2026-04-30 14:51 | 45.61750 | 8.71906 | 725 ft | 0 kts | 258° |